sensor_id;sensor_type;location;lat;lon;timestamp;P1;durP1;ratioP1;P2;durP2;ratioP2
25637;SDS011;13496;51.040;13.680;2022-11-20T00:02:58;5.70;;;5.00;;
25637;SDS011;13496;51.040;13.680;2022-11-20T00:08:00;5.70;;;5.10;;
25637;SDS011;13496;51.040;13.680;2022-11-20T00:13:02;5.70;;;5.20;;
25637;SDS011;13496;51.040;13.680;2022-11-20T00:18:03;5.60;;;5.10;;
25637;SDS011;13496;51.040;13.680;2022-11-20T00:23:05;5.37;;;4.97;;
25637;SDS011;13496;51.040;13.680;2022-11-20T00:28:08;5.70;;;5.20;;
25637;SDS011;13496;51.040;13.680;2022-11-20T00:33:09;5.33;;;4.87;;
25637;SDS011;13496;51.040;13.680;2022-11-20T00:38:11;5.10;;;4.70;;
25637;SDS011;13496;51.040;13.680;2022-11-20T00:43:13;5.80;;;5.30;;
25637;SDS011;13496;51.040;13.680;2022-11-20T00:48:14;5.70;;;5.20;;
25637;SDS011;13496;51.040;13.680;2022-11-20T00:53:16;5.50;;;5.00;;
25637;SDS011;13496;51.040;13.680;2022-11-20T00:58:18;5.40;;;4.77;;
25637;SDS011;13496;51.040;13.680;2022-11-20T01:03:19;5.50;;;5.00;;
25637;SDS011;13496;51.040;13.680;2022-11-20T01:08:21;5.33;;;4.90;;
25637;SDS011;13496;51.040;13.680;2022-11-20T01:13:23;4.93;;;4.53;;
25637;SDS011;13496;51.040;13.680;2022-11-20T01:18:40;5.23;;;4.83;;
25637;SDS011;13496;51.040;13.680;2022-11-20T01:23:44;5.57;;;5.07;;
25637;SDS011;13496;51.040;13.680;2022-11-20T01:28:47;5.57;;;5.07;;
25637;SDS011;13496;51.040;13.680;2022-11-20T01:33:50;5.50;;;5.10;;
25637;SDS011;13496;51.040;13.680;2022-11-20T01:38:57;5.40;;;4.90;;
25637;SDS011;13496;51.040;13.680;2022-11-20T01:44:01;5.57;;;5.07;;
25637;SDS011;13496;51.040;13.680;2022-11-20T01:49:08;5.83;;;5.23;;
25637;SDS011;13496;51.040;13.680;2022-11-20T01:54:34;5.27;;;4.87;;
25637;SDS011;13496;51.040;13.680;2022-11-20T01:59:40;5.40;;;4.90;;
25637;SDS011;13496;51.040;13.680;2022-11-20T02:04:47;5.37;;;4.97;;
25637;SDS011;13496;51.040;13.680;2022-11-20T02:09:51;5.30;;;4.80;;
25637;SDS011;13496;51.040;13.680;2022-11-20T02:14:53;4.77;;;4.43;;
25637;SDS011;13496;51.040;13.680;2022-11-20T02:19:55;5.40;;;4.90;;
25637;SDS011;13496;51.040;13.680;2022-11-20T02:24:57;4.90;;;4.50;;
25637;SDS011;13496;51.040;13.680;2022-11-20T02:30:03;4.53;;;4.13;;
25637;SDS011;13496;51.040;13.680;2022-11-20T02:35:09;4.90;;;4.50;;
25637;SDS011;13496;51.040;13.680;2022-11-20T02:40:31;5.03;;;4.53;;
25637;SDS011;13496;51.040;13.680;2022-11-20T02:45:33;4.40;;;4.00;;
25637;SDS011;13496;51.040;13.680;2022-11-20T02:50:38;5.00;;;4.50;;
25637;SDS011;13496;51.040;13.680;2022-11-20T02:55:41;5.10;;;4.70;;
25637;SDS011;13496;51.040;13.680;2022-11-20T03:00:42;5.17;;;4.67;;
25637;SDS011;13496;51.040;13.680;2022-11-20T03:05:44;4.37;;;4.03;;
25637;SDS011;13496;51.040;13.680;2022-11-20T03:10:46;4.70;;;4.30;;
25637;SDS011;13496;51.040;13.680;2022-11-20T03:15:47;4.00;;;3.70;;
25637;SDS011;13496;51.040;13.680;2022-11-20T03:20:49;4.40;;;4.00;;
25637;SDS011;13496;51.040;13.680;2022-11-20T03:25:51;4.77;;;4.37;;
25637;SDS011;13496;51.040;13.680;2022-11-20T03:30:52;4.40;;;4.00;;
25637;SDS011;13496;51.040;13.680;2022-11-20T03:35:54;4.00;;;3.70;;
25637;SDS011;13496;51.040;13.680;2022-11-20T03:41:02;4.53;;;4.13;;
25637;SDS011;13496;51.040;13.680;2022-11-20T03:46:08;4.63;;;4.23;;
25637;SDS011;13496;51.040;13.680;2022-11-20T03:51:13;4.20;;;3.90;;
25637;SDS011;13496;51.040;13.680;2022-11-20T03:56:20;4.37;;;3.87;;
25637;SDS011;13496;51.040;13.680;2022-11-20T04:01:26;4.50;;;4.10;;
25637;SDS011;13496;51.040;13.680;2022-11-20T04:06:30;4.30;;;3.90;;
25637;SDS011;13496;51.040;13.680;2022-11-20T04:11:36;4.77;;;4.37;;
25637;SDS011;13496;51.040;13.680;2022-11-20T04:16:40;4.27;;;3.87;;
25637;SDS011;13496;51.040;13.680;2022-11-20T04:21:43;5.60;;;4.30;;
25637;SDS011;13496;51.040;13.680;2022-11-20T04:26:45;4.40;;;4.00;;
25637;SDS011;13496;51.040;13.680;2022-11-20T04:31:47;4.33;;;4.00;;
25637;SDS011;13496;51.040;13.680;2022-11-20T04:36:49;4.50;;;4.10;;
25637;SDS011;13496;51.040;13.680;2022-11-20T04:41:51;4.30;;;3.93;;
25637;SDS011;13496;51.040;13.680;2022-11-20T04:47:12;3.67;;;3.37;;
25637;SDS011;13496;51.040;13.680;2022-11-20T04:52:14;3.87;;;3.47;;
25637;SDS011;13496;51.040;13.680;2022-11-20T04:57:16;3.60;;;3.30;;
25637;SDS011;13496;51.040;13.680;2022-11-20T05:02:17;4.10;;;3.80;;
25637;SDS011;13496;51.040;13.680;2022-11-20T05:07:19;3.73;;;3.43;;
25637;SDS011;13496;51.040;13.680;2022-11-20T05:12:21;3.70;;;3.40;;
25637;SDS011;13496;51.040;13.680;2022-11-20T05:17:22;3.20;;;3.00;;
25637;SDS011;13496;51.040;13.680;2022-11-20T05:22:24;3.57;;;3.27;;
25637;SDS011;13496;51.040;13.680;2022-11-20T05:27:26;3.73;;;3.43;;
25637;SDS011;13496;51.040;13.680;2022-11-20T05:32:27;4.27;;;3.87;;
25637;SDS011;13496;51.040;13.680;2022-11-20T05:37:29;3.80;;;3.50;;
25637;SDS011;13496;51.040;13.680;2022-11-20T05:42:30;4.13;;;3.77;;
25637;SDS011;13496;51.040;13.680;2022-11-20T05:47:33;4.43;;;4.03;;
25637;SDS011;13496;51.040;13.680;2022-11-20T05:52:36;5.33;;;4.40;;
25637;SDS011;13496;51.040;13.680;2022-11-20T05:57:37;6.27;;;4.27;;
25637;SDS011;13496;51.040;13.680;2022-11-20T06:02:39;5.43;;;4.23;;
25637;SDS011;13496;51.040;13.680;2022-11-20T06:07:41;5.27;;;4.70;;
25637;SDS011;13496;51.040;13.680;2022-11-20T06:12:42;5.63;;;4.93;;
25637;SDS011;13496;51.040;13.680;2022-11-20T06:17:44;6.00;;;5.10;;
25637;SDS011;13496;51.040;13.680;2022-11-20T06:22:46;6.10;;;5.50;;
25637;SDS011;13496;51.040;13.680;2022-11-20T06:27:47;7.37;;;6.03;;
25637;SDS011;13496;51.040;13.680;2022-11-20T06:32:49;7.17;;;5.97;;
25637;SDS011;13496;51.040;13.680;2022-11-20T06:37:51;8.67;;;6.50;;
25637;SDS011;13496;51.040;13.680;2022-11-20T06:42:53;7.37;;;6.60;;
25637;SDS011;13496;51.040;13.680;2022-11-20T06:47:57;8.30;;;7.40;;
25637;SDS011;13496;51.040;13.680;2022-11-20T06:53:02;7.83;;;6.97;;
25637;SDS011;13496;51.040;13.680;2022-11-20T06:58:05;8.80;;;7.30;;
25637;SDS011;13496;51.040;13.680;2022-11-20T07:03:07;9.40;;;8.03;;
25637;SDS011;13496;51.040;13.680;2022-11-20T07:08:10;10.27;;;8.47;;
25637;SDS011;13496;51.040;13.680;2022-11-20T07:13:13;9.47;;;7.70;;
25637;SDS011;13496;51.040;13.680;2022-11-20T07:18:15;9.27;;;7.60;;
25637;SDS011;13496;51.040;13.680;2022-11-20T07:23:17;10.10;;;8.53;;
25637;SDS011;13496;51.040;13.680;2022-11-20T07:28:18;10.07;;;8.10;;
25637;SDS011;13496;51.040;13.680;2022-11-20T07:33:20;10.00;;;8.13;;
25637;SDS011;13496;51.040;13.680;2022-11-20T07:38:22;9.60;;;8.30;;
25637;SDS011;13496;51.040;13.680;2022-11-20T07:43:23;9.60;;;8.07;;
25637;SDS011;13496;51.040;13.680;2022-11-20T07:48:26;11.67;;;8.30;;
25637;SDS011;13496;51.040;13.680;2022-11-20T07:53:28;8.67;;;7.77;;
25637;SDS011;13496;51.040;13.680;2022-11-20T07:58:29;9.07;;;7.60;;
25637;SDS011;13496;51.040;13.680;2022-11-20T08:03:34;10.33;;;7.47;;
25637;SDS011;13496;51.040;13.680;2022-11-20T08:08:38;9.10;;;7.27;;
25637;SDS011;13496;51.040;13.680;2022-11-20T08:13:40;10.00;;;6.82;;
25637;SDS011;13496;51.040;13.680;2022-11-20T08:19:08;8.52;;;7.13;;
25637;SDS011;13496;51.040;13.680;2022-11-20T08:24:10;8.43;;;6.82;;
25637;SDS011;13496;51.040;13.680;2022-11-20T08:29:12;7.53;;;6.60;;
25637;SDS011;13496;51.040;13.680;2022-11-20T08:34:14;10.18;;;6.60;;
25637;SDS011;13496;51.040;13.680;2022-11-20T08:39:16;8.10;;;6.07;;
25637;SDS011;13496;51.040;13.680;2022-11-20T08:44:17;15.63;;;6.53;;
25637;SDS011;13496;51.040;13.680;2022-11-20T08:49:19;9.15;;;6.03;;
25637;SDS011;13496;51.040;13.680;2022-11-20T08:54:21;7.32;;;6.20;;
25637;SDS011;13496;51.040;13.680;2022-11-20T08:59:23;6.75;;;6.00;;
25637;SDS011;13496;51.040;13.680;2022-11-20T09:04:25;7.75;;;6.10;;
25637;SDS011;13496;51.040;13.680;2022-11-20T09:09:27;6.88;;;5.93;;
25637;SDS011;13496;51.040;13.680;2022-11-20T09:14:29;7.75;;;5.82;;
25637;SDS011;13496;51.040;13.680;2022-11-20T09:19:31;6.18;;;5.53;;
25637;SDS011;13496;51.040;13.680;2022-11-20T09:24:33;7.63;;;5.55;;
25637;SDS011;13496;51.040;13.680;2022-11-20T09:29:34;9.07;;;5.80;;
25637;SDS011;13496;51.040;13.680;2022-11-20T09:34:36;8.37;;;5.53;;
25637;SDS011;13496;51.040;13.680;2022-11-20T09:39:38;7.30;;;5.17;;
25637;SDS011;13496;51.040;13.680;2022-11-20T09:50:02;6.85;;;5.50;;
25637;SDS011;13496;51.040;13.680;2022-11-20T09:55:26;6.40;;;4.90;;
25637;SDS011;13496;51.040;13.680;2022-11-20T10:00:32;8.40;;;5.03;;
25637;SDS011;13496;51.040;13.680;2022-11-20T10:05:38;5.37;;;4.87;;
25637;SDS011;13496;51.040;13.680;2022-11-20T10:32:21;8.90;;;4.85;;
25637;SDS011;13496;51.040;13.680;2022-11-20T10:37:29;5.90;;;5.27;;
25637;SDS011;13496;51.040;13.680;2022-11-20T10:42:35;5.10;;;4.53;;
25637;SDS011;13496;51.040;13.680;2022-11-20T10:47:42;5.53;;;4.93;;
25637;SDS011;13496;51.040;13.680;2022-11-20T10:52:58;7.88;;;5.00;;
25637;SDS011;13496;51.040;13.680;2022-11-20T11:03:34;7.03;;;5.33;;
25637;SDS011;13496;51.040;13.680;2022-11-20T11:08:37;5.82;;;4.97;;
25637;SDS011;13496;51.040;13.680;2022-11-20T11:13:41;6.32;;;4.53;;
25637;SDS011;13496;51.040;13.680;2022-11-20T11:18:42;4.95;;;4.45;;
25637;SDS011;13496;51.040;13.680;2022-11-20T11:23:44;5.50;;;4.70;;
25637;SDS011;13496;51.040;13.680;2022-11-20T11:28:52;5.32;;;4.50;;
25637;SDS011;13496;51.040;13.680;2022-11-20T11:34:11;4.80;;;4.40;;
25637;SDS011;13496;51.040;13.680;2022-11-20T11:39:17;5.93;;;4.57;;
25637;SDS011;13496;51.040;13.680;2022-11-20T11:44:28;5.80;;;4.43;;
25637;SDS011;13496;51.040;13.680;2022-11-20T11:55:14;5.40;;;3.93;;
25637;SDS011;13496;51.040;13.680;2022-11-20T12:00:21;4.30;;;3.97;;
25637;SDS011;13496;51.040;13.680;2022-11-20T12:05:40;5.27;;;4.27;;
25637;SDS011;13496;51.040;13.680;2022-11-20T12:11:06;5.77;;;4.60;;
25637;SDS011;13496;51.040;13.680;2022-11-20T12:16:17;4.50;;;4.07;;
25637;SDS011;13496;51.040;13.680;2022-11-20T12:42:34;4.53;;;4.13;;
25637;SDS011;13496;51.040;13.680;2022-11-20T12:48:25;3.97;;;3.60;;
25637;SDS011;13496;51.040;13.680;2022-11-20T13:09:38;6.70;;;4.10;;
25637;SDS011;13496;51.040;13.680;2022-11-20T13:19:56;374.10;;;31.40;;
25637;SDS011;13496;51.040;13.680;2022-11-20T13:25:00;289.53;;;25.83;;
25637;SDS011;13496;51.040;13.680;2022-11-20T13:30:15;195.67;;;20.97;;
25637;SDS011;13496;51.040;13.680;2022-11-20T13:35:30;145.50;;;16.97;;
25637;SDS011;13496;51.040;13.680;2022-11-20T13:40:37;98.32;;;13.18;;
25637;SDS011;13496;51.040;13.680;2022-11-20T13:45:59;83.20;;;12.67;;
25637;SDS011;13496;51.040;13.680;2022-11-20T13:51:04;173.77;;;19.33;;
25637;SDS011;13496;51.040;13.680;2022-11-20T13:56:34;156.27;;;17.87;;
25637;SDS011;13496;51.040;13.680;2022-11-20T14:01:48;332.90;;;35.43;;
25637;SDS011;13496;51.040;13.680;2022-11-20T14:06:50;391.00;;;39.63;;
25637;SDS011;13496;51.040;13.680;2022-11-20T14:11:53;302.87;;;34.37;;
25637;SDS011;13496;51.040;13.680;2022-11-20T14:17:07;262.52;;;31.83;;
25637;SDS011;13496;51.040;13.680;2022-11-20T14:22:19;223.17;;;27.50;;
25637;SDS011;13496;51.040;13.680;2022-11-20T14:27:24;172.83;;;24.03;;
25637;SDS011;13496;51.040;13.680;2022-11-20T14:32:26;159.40;;;21.73;;
25637;SDS011;13496;51.040;13.680;2022-11-20T14:37:32;140.13;;;20.10;;
25637;SDS011;13496;51.040;13.680;2022-11-20T14:42:37;118.93;;;17.53;;
25637;SDS011;13496;51.040;13.680;2022-11-20T14:47:45;89.23;;;15.83;;
25637;SDS011;13496;51.040;13.680;2022-11-20T14:52:51;77.10;;;13.87;;
25637;SDS011;13496;51.040;13.680;2022-11-20T14:57:55;69.07;;;13.63;;
25637;SDS011;13496;51.040;13.680;2022-11-20T15:03:01;66.63;;;12.03;;
25637;SDS011;13496;51.040;13.680;2022-11-20T15:08:05;51.20;;;10.57;;
25637;SDS011;13496;51.040;13.680;2022-11-20T15:13:13;46.63;;;10.03;;
25637;SDS011;13496;51.040;13.680;2022-11-20T15:18:37;35.63;;;9.53;;
25637;SDS011;13496;51.040;13.680;2022-11-20T15:23:43;36.23;;;9.40;;
25637;SDS011;13496;51.040;13.680;2022-11-20T15:28:45;29.03;;;8.60;;
25637;SDS011;13496;51.040;13.680;2022-11-20T15:33:49;24.73;;;8.23;;
25637;SDS011;13496;51.040;13.680;2022-11-20T15:38:51;20.23;;;7.57;;
25637;SDS011;13496;51.040;13.680;2022-11-20T15:43:52;20.10;;;7.57;;
25637;SDS011;13496;51.040;13.680;2022-11-20T15:48:54;21.77;;;7.57;;
25637;SDS011;13496;51.040;13.680;2022-11-20T15:53:58;20.67;;;7.17;;
25637;SDS011;13496;51.040;13.680;2022-11-20T15:59:02;15.73;;;7.03;;
25637;SDS011;13496;51.040;13.680;2022-11-20T16:04:04;14.00;;;6.30;;
25637;SDS011;13496;51.040;13.680;2022-11-20T16:09:10;14.37;;;6.97;;
25637;SDS011;13496;51.040;13.680;2022-11-20T16:14:12;18.47;;;7.43;;
25637;SDS011;13496;51.040;13.680;2022-11-20T16:19:32;16.37;;;7.07;;
25637;SDS011;13496;51.040;13.680;2022-11-20T16:24:34;14.97;;;6.77;;
25637;SDS011;13496;51.040;13.680;2022-11-20T16:29:35;13.77;;;6.43;;
25637;SDS011;13496;51.040;13.680;2022-11-20T16:34:37;11.23;;;6.23;;
25637;SDS011;13496;51.040;13.680;2022-11-20T16:39:38;15.53;;;7.50;;
25637;SDS011;13496;51.040;13.680;2022-11-20T16:44:40;11.63;;;5.93;;
25637;SDS011;13496;51.040;13.680;2022-11-20T16:49:42;9.30;;;5.93;;
25637;SDS011;13496;51.040;13.680;2022-11-20T16:54:44;8.90;;;5.47;;
25637;SDS011;13496;51.040;13.680;2022-11-20T16:59:46;10.43;;;5.67;;
25637;SDS011;13496;51.040;13.680;2022-11-20T17:04:47;7.93;;;6.60;;
25637;SDS011;13496;51.040;13.680;2022-11-20T17:09:49;10.00;;;5.83;;
25637;SDS011;13496;51.040;13.680;2022-11-20T17:14:51;10.33;;;5.90;;
25637;SDS011;13496;51.040;13.680;2022-11-20T17:19:52;9.17;;;6.17;;
25637;SDS011;13496;51.040;13.680;2022-11-20T17:24:54;8.20;;;5.20;;
25637;SDS011;13496;51.040;13.680;2022-11-20T17:29:55;12.00;;;6.17;;
25637;SDS011;13496;51.040;13.680;2022-11-20T17:34:59;6.17;;;5.50;;
25637;SDS011;13496;51.040;13.680;2022-11-20T17:40:01;8.60;;;5.17;;
25637;SDS011;13496;51.040;13.680;2022-11-20T17:45:03;8.37;;;5.60;;
25637;SDS011;13496;51.040;13.680;2022-11-20T17:50:05;7.90;;;5.63;;
25637;SDS011;13496;51.040;13.680;2022-11-20T17:55:07;7.93;;;5.63;;
25637;SDS011;13496;51.040;13.680;2022-11-20T18:00:09;6.90;;;5.40;;
25637;SDS011;13496;51.040;13.680;2022-11-20T18:05:13;9.03;;;5.83;;
25637;SDS011;13496;51.040;13.680;2022-11-20T18:10:17;7.13;;;5.40;;
25637;SDS011;13496;51.040;13.680;2022-11-20T18:15:19;6.87;;;5.63;;
25637;SDS011;13496;51.040;13.680;2022-11-20T18:20:21;9.57;;;5.83;;
25637;SDS011;13496;51.040;13.680;2022-11-20T18:25:23;12.33;;;5.63;;
25637;SDS011;13496;51.040;13.680;2022-11-20T18:30:25;43.70;;;9.15;;
25637;SDS011;13496;51.040;13.680;2022-11-20T18:35:26;49.93;;;8.93;;
25637;SDS011;13496;51.040;13.680;2022-11-20T18:40:29;32.33;;;8.13;;
25637;SDS011;13496;51.040;13.680;2022-11-20T18:45:31;35.47;;;8.57;;
25637;SDS011;13496;51.040;13.680;2022-11-20T18:50:32;23.47;;;8.07;;
25637;SDS011;13496;51.040;13.680;2022-11-20T18:55:35;40.90;;;9.83;;
25637;SDS011;13496;51.040;13.680;2022-11-20T19:00:36;38.47;;;9.73;;
25637;SDS011;13496;51.040;13.680;2022-11-20T19:05:38;32.60;;;9.03;;
25637;SDS011;13496;51.040;13.680;2022-11-20T19:10:40;28.33;;;8.17;;
25637;SDS011;13496;51.040;13.680;2022-11-20T19:15:42;19.20;;;7.87;;
25637;SDS011;13496;51.040;13.680;2022-11-20T19:20:43;30.00;;;9.00;;
25637;SDS011;13496;51.040;13.680;2022-11-20T19:25:45;40.07;;;10.50;;
25637;SDS011;13496;51.040;13.680;2022-11-20T19:30:47;63.37;;;12.60;;
25637;SDS011;13496;51.040;13.680;2022-11-20T19:35:48;49.00;;;11.00;;
25637;SDS011;13496;51.040;13.680;2022-11-20T19:40:51;34.10;;;10.37;;
25637;SDS011;13496;51.040;13.680;2022-11-20T19:45:52;40.17;;;10.27;;
25637;SDS011;13496;51.040;13.680;2022-11-20T19:50:54;35.53;;;10.00;;
25637;SDS011;13496;51.040;13.680;2022-11-20T19:55:56;29.87;;;9.53;;
25637;SDS011;13496;51.040;13.680;2022-11-20T20:01:12;33.13;;;9.03;;
25637;SDS011;13496;51.040;13.680;2022-11-20T20:06:16;24.77;;;9.53;;
25637;SDS011;13496;51.040;13.680;2022-11-20T20:11:24;32.33;;;9.50;;
25637;SDS011;13496;51.040;13.680;2022-11-20T20:16:27;19.10;;;8.17;;
25637;SDS011;13496;51.040;13.680;2022-11-20T20:21:30;22.80;;;8.77;;
25637;SDS011;13496;51.040;13.680;2022-11-20T20:26:33;20.03;;;8.23;;
25637;SDS011;13496;51.040;13.680;2022-11-20T20:31:35;18.57;;;8.20;;
25637;SDS011;13496;51.040;13.680;2022-11-20T20:36:36;15.67;;;7.90;;
25637;SDS011;13496;51.040;13.680;2022-11-20T20:41:39;14.33;;;8.03;;
25637;SDS011;13496;51.040;13.680;2022-11-20T20:46:40;14.77;;;8.10;;
25637;SDS011;13496;51.040;13.680;2022-11-20T20:51:42;14.47;;;7.70;;
25637;SDS011;13496;51.040;13.680;2022-11-20T20:56:44;15.73;;;7.80;;
25637;SDS011;13496;51.040;13.680;2022-11-20T21:01:45;15.13;;;8.00;;
25637;SDS011;13496;51.040;13.680;2022-11-20T21:06:47;12.73;;;8.40;;
25637;SDS011;13496;51.040;13.680;2022-11-20T21:11:49;13.97;;;7.40;;
25637;SDS011;13496;51.040;13.680;2022-11-20T21:16:51;11.23;;;7.23;;
25637;SDS011;13496;51.040;13.680;2022-11-20T21:21:53;14.67;;;8.37;;
25637;SDS011;13496;51.040;13.680;2022-11-20T21:27:01;10.90;;;7.33;;
25637;SDS011;13496;51.040;13.680;2022-11-20T21:32:05;12.13;;;7.97;;
25637;SDS011;13496;51.040;13.680;2022-11-20T21:37:06;14.90;;;7.77;;
25637;SDS011;13496;51.040;13.680;2022-11-20T21:42:08;10.93;;;7.80;;
25637;SDS011;13496;51.040;13.680;2022-11-20T21:47:10;12.37;;;7.97;;
25637;SDS011;13496;51.040;13.680;2022-11-20T21:52:12;12.33;;;7.97;;
25637;SDS011;13496;51.040;13.680;2022-11-20T21:57:14;11.10;;;7.80;;
25637;SDS011;13496;51.040;13.680;2022-11-20T22:02:15;10.73;;;7.07;;
25637;SDS011;13496;51.040;13.680;2022-11-20T22:07:17;11.87;;;7.57;;
25637;SDS011;13496;51.040;13.680;2022-11-20T22:12:19;10.77;;;6.97;;
25637;SDS011;13496;51.040;13.680;2022-11-20T22:17:21;10.03;;;7.40;;
25637;SDS011;13496;51.040;13.680;2022-11-20T22:22:42;11.17;;;7.53;;
25637;SDS011;13496;51.040;13.680;2022-11-20T22:27:44;9.87;;;7.00;;
25637;SDS011;13496;51.040;13.680;2022-11-20T22:32:46;10.67;;;7.10;;
25637;SDS011;13496;51.040;13.680;2022-11-20T22:37:48;8.43;;;6.67;;
25637;SDS011;13496;51.040;13.680;2022-11-20T22:42:50;8.97;;;6.93;;
25637;SDS011;13496;51.040;13.680;2022-11-20T22:47:51;9.33;;;7.10;;
25637;SDS011;13496;51.040;13.680;2022-11-20T22:52:53;8.57;;;6.67;;
25637;SDS011;13496;51.040;13.680;2022-11-20T22:57:55;8.87;;;7.40;;
25637;SDS011;13496;51.040;13.680;2022-11-20T23:02:56;8.60;;;6.67;;
25637;SDS011;13496;51.040;13.680;2022-11-20T23:07:58;8.23;;;6.77;;
25637;SDS011;13496;51.040;13.680;2022-11-20T23:13:00;7.93;;;6.20;;
25637;SDS011;13496;51.040;13.680;2022-11-20T23:18:01;8.90;;;6.33;;
25637;SDS011;13496;51.040;13.680;2022-11-20T23:23:03;8.30;;;6.63;;
25637;SDS011;13496;51.040;13.680;2022-11-20T23:28:05;9.20;;;6.50;;
25637;SDS011;13496;51.040;13.680;2022-11-20T23:33:06;7.97;;;6.23;;
25637;SDS011;13496;51.040;13.680;2022-11-20T23:38:08;7.33;;;6.37;;
25637;SDS011;13496;51.040;13.680;2022-11-20T23:43:11;8.07;;;6.20;;
25637;SDS011;13496;51.040;13.680;2022-11-20T23:48:16;8.13;;;5.97;;
25637;SDS011;13496;51.040;13.680;2022-11-20T23:53:18;7.13;;;6.20;;
25637;SDS011;13496;51.040;13.680;2022-11-20T23:58:21;7.30;;;6.07;;
